Time;durP1;ratioP1;P1;durP2;ratioP2;P2;SDS_P1;SDS_P2;PMS_P1;PMS_P2;Temp;Humidity;BMP_temperature;BMP_pressure;BME280_temperature;BME280_humidity;BME280_pressure;Samples;Min_cycle;Max_cycle;Signal;HPM_P1;HPM_P2
2021/11/08 00:00:08;;;;;;;;;13.50;11.00;;;;;;;;5043997;28;12412;-77
2021/11/08 00:02:37;;;;;;;;;11.75;11.75;;;;;;;;5041324;28;12264;-77
2021/11/08 00:05:06;;;;;;;;;18.50;14.75;;;;;;;;5044018;28;12180;-77
2021/11/08 00:07:34;;;;;;;;;12.75;10.00;;;;;;;;5043079;28;11580;-78
2021/11/08 00:10:04;;;;;;;;;8.25;8.25;;;;;;;;5041860;28;11592;-79
2021/11/08 00:12:31;;;;;;;;;8.25;8.25;;;;;;;;5042979;28;11583;-76
2021/11/08 00:14:59;;;;;;;;;9.75;8.00;;;;;;;;5041315;28;12387;-79
2021/11/08 00:17:52;;;;;;;;;10.50;8.75;;;;;;;;5041650;28;11555;-82
2021/11/08 00:20:25;;;;;;;;;9.00;9.00;;;;;;;;5041324;28;11532;-77
2021/11/08 00:22:53;;;;;;;;;10.00;10.00;;;;;;;;5042797;28;11575;-76
2021/11/08 00:25:20;;;;;;;;;10.25;10.25;;;;;;;;5044797;28;11641;-78
2021/11/08 00:27:48;;;;;;;;;13.00;9.00;;;;;;;;5039361;28;11576;-76
2021/11/08 00:30:15;;;;;;;;;11.25;9.75;;;;;;;;5043166;28;11567;-78
2021/11/08 00:32:42;;;;;;;;;13.00;10.25;;;;;;;;5041643;28;11515;-80
2021/11/08 00:35:12;;;;;;;;;10.00;9.00;;;;;;;;5040186;28;11546;-79
2021/11/08 00:37:41;;;;;;;;;10.00;10.00;;;;;;;;5039859;28;11526;-78
2021/11/08 00:40:09;;;;;;;;;10.00;10.00;;;;;;;;5043051;28;11528;-79
2021/11/08 00:42:37;;;;;;;;;22.50;22.50;;;;;;;;5038085;28;11524;-77
2021/11/08 00:45:05;;;;;;;;;19.50;17.25;;;;;;;;5038782;28;11636;-76
2021/11/08 00:47:34;;;;;;;;;23.00;22.50;;;;;;;;5040671;28;11598;-80
2021/11/08 00:50:02;;;;;;;;;30.75;25.25;;;;;;;;5041330;28;11576;-76
2021/11/08 00:52:29;;;;;;;;;14.50;14.50;;;;;;;;5037350;28;11597;-78
2021/11/08 00:54:59;;;;;;;;;20.50;17.75;;;;;;;;5041020;28;11598;-79
2021/11/08 00:57:31;;;;;;;;;19.00;19.00;;;;;;;;5042577;28;11581;-75
2021/11/08 00:59:59;;;;;;;;;31.50;27.25;;;;;;;;5041623;28;11560;-80
2021/11/08 01:02:29;;;;;;;;;24.25;22.00;;;;;;;;5039903;28;11558;-77
2021/11/08 01:04:59;;;;;;;;;22.50;20.50;;;;;;;;5044897;28;11568;-78
2021/11/08 01:07:26;;;;;;;;;15.50;15.50;;;;;;;;5045213;28;11762;-79
2021/11/08 01:09:54;;;;;;;;;35.00;32.25;;;;;;;;5046583;28;12944;-80
2021/11/08 01:12:25;;;;;;;;;27.25;24.00;;;;;;;;5043442;28;11594;-80
2021/11/08 01:14:53;;;;;;;;;25.25;21.25;;;;;;;;5046340;28;11566;-77
2021/11/08 01:17:21;;;;;;;;;20.50;19.25;;;;;;;;5044015;28;11604;-79
2021/11/08 01:19:50;;;;;;;;;12.25;12.25;;;;;;;;5045409;28;12228;-79
2021/11/08 01:22:18;;;;;;;;;22.25;19.75;;;;;;;;5035984;28;11585;-77
2021/11/08 01:24:53;;;;;;;;;21.75;19.75;;;;;;;;5046779;28;11586;-77
2021/11/08 01:27:22;;;;;;;;;23.00;21.00;;;;;;;;5045151;28;11615;-79
2021/11/08 01:29:50;;;;;;;;;22.75;21.25;;;;;;;;5046204;28;11722;-79
2021/11/08 01:32:17;;;;;;;;;24.75;24.75;;;;;;;;5056973;28;11492;-79
2021/11/08 01:34:44;;;;;;;;;17.00;17.00;;;;;;;;5066596;28;11654;-79
2021/11/08 01:37:12;;;;;;;;;23.75;23.75;;;;;;;;5051407;28;12424;-77
2021/11/08 01:39:40;;;;;;;;;19.75;17.75;;;;;;;;5061644;28;11547;-77
2021/11/08 01:42:10;;;;;;;;;23.50;20.75;;;;;;;;5064317;28;11498;-77
2021/11/08 01:44:39;;;;;;;;;20.00;20.00;;;;;;;;5062303;28;11601;-80
2021/11/08 01:47:07;;;;;;;;;24.25;21.00;;;;;;;;5064443;28;11592;-79
2021/11/08 01:49:36;;;;;;;;;27.00;24.75;;;;;;;;5062343;28;11496;-78
2021/11/08 01:52:04;;;;;;;;;21.50;21.50;;;;;;;;5046999;28;11532;-77
2021/11/08 01:54:32;;;;;;;;;19.25;15.00;;;;;;;;5047761;28;11531;-78
2021/11/08 01:56:59;;;;;;;;;17.25;17.25;;;;;;;;5062864;28;11539;-77
2021/11/08 01:59:28;;;;;;;;;15.75;15.00;;;;;;;;5059825;28;11560;-77
2021/11/08 02:01:57;;;;;;;;;20.75;18.00;;;;;;;;5064398;28;11491;-79
2021/11/08 02:04:25;;;;;;;;;20.75;17.50;;;;;;;;5046360;28;11475;-76
2021/11/08 02:06:53;;;;;;;;;21.00;21.00;;;;;;;;5064659;28;11682;-78
2021/11/08 02:09:20;;;;;;;;;24.50;17.50;;;;;;;;5065693;28;11563;-78
2021/11/08 02:11:49;;;;;;;;;21.50;19.00;;;;;;;;5065579;28;11596;-79
2021/11/08 02:14:16;;;;;;;;;21.50;18.50;;;;;;;;5065576;28;12337;-79
2021/11/08 02:16:43;;;;;;;;;16.25;16.25;;;;;;;;5058976;28;12249;-79
2021/11/08 02:19:12;;;;;;;;;16.00;16.00;;;;;;;;5046454;28;11488;-79
2021/11/08 02:21:41;;;;;;;;;20.50;18.25;;;;;;;;5064026;28;11482;-80
2021/11/08 02:24:14;;;;;;;;;14.50;13.50;;;;;;;;5049853;28;11497;-78
2021/11/08 02:26:44;;;;;;;;;17.00;14.75;;;;;;;;5059766;28;11506;-76
2021/11/08 02:29:14;;;;;;;;;19.00;16.75;;;;;;;;5046807;28;11473;-79
2021/11/08 02:31:41;;;;;;;;;19.50;17.50;;;;;;;;5065447;28;11449;-79
2021/11/08 02:34:08;;;;;;;;;18.25;15.75;;;;;;;;5063403;28;11611;-78
2021/11/08 02:36:41;;;;;;;;;21.75;18.25;;;;;;;;5062981;28;11577;-79
2021/11/08 02:39:14;;;;;;;;;17.50;13.00;;;;;;;;5045425;28;11502;-77
2021/11/08 02:41:42;;;;;;;;;16.50;13.50;;;;;;;;5045769;28;11501;-80
2021/11/08 02:44:10;;;;;;;;;11.50;10.00;;;;;;;;5069594;28;11636;-77
2021/11/08 02:46:40;;;;;;;;;20.25;13.75;;;;;;;;5065089;28;12274;-79
2021/11/08 02:49:10;;;;;;;;;13.00;13.00;;;;;;;;5064305;28;11508;-81
2021/11/08 02:51:42;;;;;;;;;18.00;15.25;;;;;;;;5046257;28;11481;-78
2021/11/08 02:54:15;;;;;;;;;9.75;9.75;;;;;;;;5062253;28;11522;-77
2021/11/08 02:56:42;;;;;;;;;12.25;12.25;;;;;;;;5064235;28;11509;-78
2021/11/08 02:59:10;;;;;;;;;11.00;11.00;;;;;;;;5064024;28;11601;-80
2021/11/08 03:01:37;;;;;;;;;13.25;13.25;;;;;;;;5062958;28;11500;-80
2021/11/08 03:04:12;;;;;;;;;13.00;10.25;;;;;;;;5062372;28;12364;-79
2021/11/08 03:06:40;;;;;;;;;11.75;11.75;;;;;;;;5054182;28;11472;-80
2021/11/08 03:09:13;;;;;;;;;11.50;10.00;;;;;;;;5061874;28;11596;-79
2021/11/08 03:11:41;;;;;;;;;8.00;8.00;;;;;;;;5053785;28;11553;-78
2021/11/08 03:14:11;;;;;;;;;12.25;11.50;;;;;;;;5064349;28;11457;-79
2021/11/08 03:16:43;;;;;;;;;12.50;11.50;;;;;;;;5064201;28;11500;-77
2021/11/08 03:19:17;;;;;;;;;9.00;9.00;;;;;;;;5065174;28;11501;-80
2021/11/08 03:21:46;;;;;;;;;8.75;8.75;;;;;;;;5060867;28;11517;-79
2021/11/08 03:24:19;;;;;;;;;10.00;10.00;;;;;;;;5064312;28;11585;-78
2021/11/08 03:26:48;;;;;;;;;11.25;10.00;;;;;;;;5057196;28;11471;-77
2021/11/08 03:29:16;;;;;;;;;14.50;14.50;;;;;;;;5056027;28;11611;-78
2021/11/08 03:31:46;;;;;;;;;14.25;12.25;;;;;;;;5059307;28;11536;-79
2021/11/08 03:34:15;;;;;;;;;14.00;13.50;;;;;;;;5061681;28;11487;-79
2021/11/08 03:36:42;;;;;;;;;16.00;14.25;;;;;;;;5063477;28;11481;-81
2021/11/08 03:39:13;;;;;;;;;12.00;12.00;;;;;;;;5058240;28;11519;-77
2021/11/08 03:41:42;;;;;;;;;13.25;13.25;;;;;;;;5045686;28;11515;-78
2021/11/08 03:44:09;;;;;;;;;13.50;13.50;;;;;;;;5062332;28;11531;-78
2021/11/08 03:46:36;;;;;;;;;12.25;12.00;;;;;;;;5062089;28;11492;-77
2021/11/08 03:49:04;;;;;;;;;12.50;12.50;;;;;;;;5064371;28;11494;-80
2021/11/08 03:51:33;;;;;;;;;9.50;8.75;;;;;;;;5061365;28;11532;-79
2021/11/08 03:54:02;;;;;;;;;20.25;15.75;;;;;;;;5060887;28;11531;-78
2021/11/08 03:56:30;;;;;;;;;20.75;18.25;;;;;;;;5059825;28;11536;-77
2021/11/08 03:59:00;;;;;;;;;17.00;15.50;;;;;;;;5063770;28;11578;-75
2021/11/08 04:01:29;;;;;;;;;24.00;22.00;;;;;;;;5061200;28;11422;-80
2021/11/08 04:03:56;;;;;;;;;19.75;19.00;;;;;;;;5064389;28;11559;-79
2021/11/08 04:06:24;;;;;;;;;17.75;17.75;;;;;;;;5062011;28;11520;-77
2021/11/08 04:08:51;;;;;;;;;21.75;20.00;;;;;;;;5044504;28;11481;-77
2021/11/08 04:11:19;;;;;;;;;24.50;20.75;;;;;;;;5063378;28;11600;-77
2021/11/08 04:13:46;;;;;;;;;18.25;16.75;;;;;;;;5062611;28;11488;-79
2021/11/08 04:16:18;;;;;;;;;25.25;23.75;;;;;;;;5062861;28;12396;-81
2021/11/08 04:18:48;;;;;;;;;21.00;21.00;;;;;;;;5061742;28;11498;-80
2021/11/08 04:21:16;;;;;;;;;20.25;18.00;;;;;;;;5060789;28;11613;-77
2021/11/08 04:23:43;;;;;;;;;16.75;15.25;;;;;;;;5066127;28;11448;-77
2021/11/08 04:26:12;;;;;;;;;22.75;19.50;;;;;;;;5073007;28;11570;-82
2021/11/08 04:28:40;;;;;;;;;17.75;16.50;;;;;;;;5061272;28;11465;-75
2021/11/08 04:31:08;;;;;;;;;19.00;19.00;;;;;;;;5061651;28;11420;-76
2021/11/08 04:33:44;;;;;;;;;17.00;12.50;;;;;;;;5043935;28;11502;-76
2021/11/08 04:36:40;;;;;;;;;18.25;18.25;;;;;;;;5054174;28;11514;-81
2021/11/08 04:39:17;;;;;;;;;21.50;16.25;;;;;;;;5058370;28;11503;-76
2021/11/08 04:41:51;;;;;;;;;8.50;6.75;;;;;;;;5063340;28;11563;-78
2021/11/08 04:44:42;;;;;;;;;16.00;16.00;;;;;;;;5064684;28;11570;-75
2021/11/08 04:49:59;;;;;;;;;13.75;13.75;;;;;;;;5053789;28;11497;-75
2021/11/08 04:52:38;;;;;;;;;21.50;11.50;;;;;;;;5061349;28;11509;-83
2021/11/08 04:55:13;;;;;;;;;18.00;16.00;;;;;;;;5063058;28;11535;-75
2021/11/08 04:58:02;;;;;;;;;16.00;13.25;;;;;;;;5037655;28;11451;-80
2021/11/08 05:22:46;;;;;;;;;47.75;35.00;;;;;;;;5039933;28;11513;-79
2021/11/08 05:28:18;;;;;;;;;34.00;31.75;;;;;;;;5073762;28;11496;-78
2021/11/08 05:30:46;;;;;;;;;35.00;27.00;;;;;;;;5061833;28;11430;-80
2021/11/08 05:33:14;;;;;;;;;23.75;23.75;;;;;;;;5072464;28;11494;-78
2021/11/08 05:35:42;;;;;;;;;31.00;29.25;;;;;;;;5070289;28;11500;-77
2021/11/08 05:38:12;;;;;;;;;29.00;25.50;;;;;;;;5052809;28;11482;-80
2021/11/08 05:40:40;;;;;;;;;44.25;42.75;;;;;;;;5067316;28;11610;-76
2021/11/08 05:43:07;;;;;;;;;45.00;41.75;;;;;;;;5063579;28;11515;-77
2021/11/08 05:45:35;;;;;;;;;58.00;48.00;;;;;;;;5066487;28;11518;-78
2021/11/08 05:48:05;;;;;;;;;49.25;43.50;;;;;;;;5074538;28;11547;-82
2021/11/08 05:50:33;;;;;;;;;50.75;43.25;;;;;;;;5060070;28;11488;-78
2021/11/08 05:53:01;;;;;;;;;48.75;44.00;;;;;;;;5057182;28;11519;-75
2021/11/08 05:55:37;;;;;;;;;43.50;38.25;;;;;;;;5077322;28;11485;-79
2021/11/08 05:58:16;;;;;;;;;37.50;36.00;;;;;;;;5078912;28;11487;-76
2021/11/08 06:50:27;;;;;;;;;26.75;24.75;;;;;;;;5063348;28;11483;-71
2021/11/08 06:53:00;;;;;;;;;28.25;28.00;;;;;;;;5076904;28;11598;-71
2021/11/08 06:55:28;;;;;;;;;32.25;25.00;;;;;;;;5064014;28;11567;-71
2021/11/08 06:58:01;;;;;;;;;24.75;24.00;;;;;;;;5061405;28;11512;-71
2021/11/08 07:00:30;;;;;;;;;24.00;24.00;;;;;;;;5064661;28;11521;-73
2021/11/08 07:02:57;;;;;;;;;24.00;24.00;;;;;;;;5062867;28;11493;-71
2021/11/08 07:05:25;;;;;;;;;19.25;18.00;;;;;;;;5065221;28;11535;-72
2021/11/08 07:07:52;;;;;;;;;24.75;24.75;;;;;;;;5064017;28;11511;-69
2021/11/08 07:10:21;;;;;;;;;24.00;21.75;;;;;;;;5065136;28;11517;-71
2021/11/08 07:12:49;;;;;;;;;25.00;22.75;;;;;;;;5046971;28;11525;-71
2021/11/08 07:15:16;;;;;;;;;18.00;18.00;;;;;;;;5064347;28;11509;-71
2021/11/08 07:17:45;;;;;;;;;30.75;27.50;;;;;;;;5064664;28;11473;-71
2021/11/08 07:20:13;;;;;;;;;23.75;23.25;;;;;;;;5064277;28;11532;-70
2021/11/08 07:22:40;;;;;;;;;29.50;24.50;;;;;;;;5064337;28;11524;-71
2021/11/08 07:25:09;;;;;;;;;25.25;23.75;;;;;;;;5071131;28;11516;-72
2021/11/08 07:27:36;;;;;;;;;22.00;20.00;;;;;;;;5056001;28;11535;-72
2021/11/08 07:30:04;;;;;;;;;31.00;26.50;;;;;;;;5062582;28;11511;-72
2021/11/08 07:32:31;;;;;;;;;20.50;18.75;;;;;;;;5024862;28;11528;-73
2021/11/08 07:35:00;;;;;;;;;32.25;27.50;;;;;;;;5027139;28;11507;-70
2021/11/08 07:37:27;;;;;;;;;26.75;22.25;;;;;;;;5046985;28;11550;-70
2021/11/08 07:39:55;;;;;;;;;27.00;27.00;;;;;;;;5045139;28;11664;-70
2021/11/08 07:42:22;;;;;;;;;24.00;19.75;;;;;;;;5042920;28;11493;-72
2021/11/08 07:44:49;;;;;;;;;22.25;22.25;;;;;;;;5046379;28;11495;-72
2021/11/08 07:47:17;;;;;;;;;35.25;27.00;;;;;;;;5055340;28;11497;-72
2021/11/08 07:49:46;;;;;;;;;24.50;24.50;;;;;;;;5034896;28;11486;-72
2021/11/08 07:52:15;;;;;;;;;24.00;22.25;;;;;;;;5047228;28;11476;-74
2021/11/08 07:54:43;;;;;;;;;31.50;27.50;;;;;;;;5043873;28;11505;-73
2021/11/08 07:57:10;;;;;;;;;29.00;27.25;;;;;;;;5026697;28;11528;-72
2021/11/08 07:59:37;;;;;;;;;33.50;31.00;;;;;;;;5024900;28;11492;-72
2021/11/08 08:02:05;;;;;;;;;29.00;27.75;;;;;;;;5043340;28;11550;-73
2021/11/08 08:04:32;;;;;;;;;28.25;26.25;;;;;;;;5043254;28;11600;-72
2021/11/08 08:07:00;;;;;;;;;33.25;31.75;;;;;;;;5043974;28;11716;-74
2021/11/08 08:09:29;;;;;;;;;40.25;36.00;;;;;;;;5042652;28;11709;-73
2021/11/08 08:11:56;;;;;;;;;39.33;36.33;;;;;;;;5039996;28;12403;-74
2021/11/08 08:14:24;;;;;;;;;52.00;44.00;;;;;;;;5039624;28;11594;-73
2021/11/08 08:16:52;;;;;;;;;60.00;49.00;;;;;;;;5041856;28;8878;-72
2021/11/08 08:19:21;;;;;;;;;78.33;61.00;;;;;;;;5044423;28;11575;-72
2021/11/08 08:21:49;;;;;;;;;74.67;60.33;;;;;;;;5043188;28;8855;-73
2021/11/08 08:24:16;;;;;;;;;70.67;55.33;;;;;;;;5051256;28;8921;-72
2021/11/08 08:26:45;;;;;;;;;71.33;56.67;;;;;;;;5042978;28;8855;-72
2021/11/08 08:29:14;;;;;;;;;65.00;53.33;;;;;;;;5043733;28;8882;-72
2021/11/08 08:31:42;;;;;;;;;67.67;49.33;;;;;;;;5030462;28;8834;-74
2021/11/08 08:34:11;;;;;;;;;58.00;45.33;;;;;;;;5032561;28;8858;-73
2021/11/08 08:36:40;;;;;;;;;64.00;52.67;;;;;;;;5038850;28;12399;-73
2021/11/08 08:39:08;;;;;;;;;75.00;59.00;;;;;;;;5040722;28;8990;-74
2021/11/08 08:41:37;;;;;;;;;47.00;42.00;;;;;;;;5038721;28;8904;-71
2021/11/08 08:44:07;;;;;;;;;60.00;47.75;;;;;;;;5045615;28;11634;-73
2021/11/08 08:46:35;;;;;;;;;33.50;31.00;;;;;;;;5042295;28;11600;-72
2021/11/08 08:49:02;;;;;;;;;36.75;30.25;;;;;;;;5041370;28;11614;-72
2021/11/08 08:51:29;;;;;;;;;33.00;30.50;;;;;;;;5042845;28;11591;-72
2021/11/08 08:53:56;;;;;;;;;29.00;25.75;;;;;;;;5042963;28;11726;-72
2021/11/08 08:56:24;;;;;;;;;22.25;22.25;;;;;;;;5042732;28;11572;-72
2021/11/08 08:58:51;;;;;;;;;31.00;31.00;;;;;;;;5043174;28;11604;-73
2021/11/08 09:01:20;;;;;;;;;24.00;24.00;;;;;;;;5038837;28;11527;-73
2021/11/08 09:03:48;;;;;;;;;40.75;35.50;;;;;;;;5041870;28;11562;-74
2021/11/08 09:06:15;;;;;;;;;25.00;22.00;;;;;;;;5042453;28;11590;-74
2021/11/08 09:08:42;;;;;;;;;38.25;36.25;;;;;;;;5042296;28;11588;-74
2021/11/08 09:11:10;;;;;;;;;24.00;24.00;;;;;;;;5042996;28;11674;-73
2021/11/08 09:13:38;;;;;;;;;23.00;22.00;;;;;;;;5041829;28;11601;-73
2021/11/08 09:16:10;;;;;;;;;32.00;27.50;;;;;;;;5042791;28;11671;-74
2021/11/08 09:18:39;;;;;;;;;34.50;33.25;;;;;;;;5037921;28;12363;-74
2021/11/08 09:21:08;;;;;;;;;39.25;37.00;;;;;;;;5032211;28;11627;-73
2021/11/08 09:23:35;;;;;;;;;29.00;23.75;;;;;;;;5023454;28;12430;-74
2021/11/08 09:26:03;;;;;;;;;25.00;23.50;;;;;;;;5043672;28;11539;-74
2021/11/08 09:28:31;;;;;;;;;39.75;38.25;;;;;;;;5043957;28;11531;-74
2021/11/08 09:30:59;;;;;;;;;40.75;37.25;;;;;;;;5044670;28;12292;-74
2021/11/08 09:33:26;;;;;;;;;33.50;33.50;;;;;;;;5039366;28;11565;-75
2021/11/08 09:36:00;;;;;;;;;32.75;32.00;;;;;;;;5040116;28;11677;-74
2021/11/08 09:38:28;;;;;;;;;29.75;29.75;;;;;;;;5039054;28;11541;-74
2021/11/08 09:40:55;;;;;;;;;23.25;21.00;;;;;;;;5045309;28;11516;-74
2021/11/08 09:43:24;;;;;;;;;30.50;27.50;;;;;;;;5042361;28;14262;-74
2021/11/08 09:45:52;;;;;;;;;24.75;24.75;;;;;;;;5037357;28;11667;-74
2021/11/08 09:48:21;;;;;;;;;29.25;26.00;;;;;;;;5040549;28;11154;-74
2021/11/08 09:50:49;;;;;;;;;25.25;24.50;;;;;;;;5045329;28;10951;-74
2021/11/08 09:53:19;;;;;;;;;17.75;16.25;;;;;;;;5044127;28;11010;-74
2021/11/08 09:55:46;;;;;;;;;12.25;9.75;;;;;;;;5041190;28;10526;-74
2021/11/08 09:58:14;;;;;;;;;9.00;7.00;;;;;;;;5042436;28;10225;-74
2021/11/08 10:00:50;;;;;;;;;16.25;13.00;;;;;;;;5043113;28;10098;-75
2021/11/08 10:03:21;;;;;;;;;11.25;11.25;;;;;;;;5037110;28;10107;-74
2021/11/08 10:05:50;;;;;;;;;16.50;13.00;;;;;;;;5045280;28;10090;-73
2021/11/08 10:08:22;;;;;;;;;13.00;13.00;;;;;;;;5044302;28;10098;-74
2021/11/08 10:10:50;;;;;;;;;9.00;9.00;;;;;;;;5039303;28;10096;-74
2021/11/08 10:13:21;;;;;;;;;10.00;10.00;;;;;;;;5043858;28;9823;-75
2021/11/08 10:15:51;;;;;;;;;12.00;12.00;;;;;;;;5045792;28;9802;-75
2021/11/08 10:18:20;;;;;;;;;10.00;8.25;;;;;;;;5045599;28;9662;-74
2021/11/08 10:20:50;;;;;;;;;10.75;10.00;;;;;;;;5042514;28;9500;-75
2021/11/08 10:23:21;;;;;;;;;11.75;11.75;;;;;;;;5043629;28;9493;-75
2021/11/08 10:25:48;;;;;;;;;12.00;9.50;;;;;;;;5045074;28;9536;-75
2021/11/08 10:28:20;;;;;;;;;14.67;9.33;;;;;;;;5045648;28;9375;-75
2021/11/08 10:30:49;;;;;;;;;14.00;12.00;;;;;;;;5044972;28;9422;-75
2021/11/08 10:33:18;;;;;;;;;10.00;10.00;;;;;;;;5044683;28;9369;-75
2021/11/08 10:35:48;;;;;;;;;13.25;10.25;;;;;;;;5040932;28;9321;-75
2021/11/08 10:38:17;;;;;;;;;10.25;10.25;;;;;;;;5043872;28;9518;-75
2021/11/08 10:40:52;;;;;;;;;12.50;10.25;;;;;;;;5042354;28;9528;-74
2021/11/08 10:43:32;;;;;;;;;12.25;12.00;;;;;;;;5052822;28;10391;-75
2021/11/08 10:46:01;;;;;;;;;11.00;10.00;;;;;;;;5043803;28;9624;-76
2021/11/08 10:48:30;;;;;;;;;15.33;12.33;;;;;;;;5041961;28;9340;-76
2021/11/08 10:51:00;;;;;;;;;12.33;12.33;;;;;;;;5041683;28;9375;-74
2021/11/08 10:53:29;;;;;;;;;11.33;10.33;;;;;;;;5043788;28;9070;-75
2021/11/08 10:56:06;;;;;;;;;12.67;12.67;;;;;;;;5042367;28;8973;-74
2021/11/08 10:58:33;;;;;;;;;9.00;9.00;;;;;;;;5039962;28;10126;-75
2021/11/08 11:01:03;;;;;;;;;14.75;10.00;;;;;;;;5049181;28;8975;-74
2021/11/08 11:03:32;;;;;;;;;11.00;10.50;;;;;;;;5046397;28;8985;-77
2021/11/08 11:06:02;;;;;;;;;14.50;11.00;;;;;;;;5056896;28;8865;-75
2021/11/08 11:08:31;;;;;;;;;12.50;11.75;;;;;;;;5065470;28;8907;-75
2021/11/08 11:11:02;;;;;;;;;9.75;7.75;;;;;;;;5062490;28;9647;-76
2021/11/08 11:13:31;;;;;;;;;18.50;11.75;;;;;;;;5063977;28;8881;-75
2021/11/08 11:16:04;;;;;;;;;11.25;11.25;;;;;;;;5058780;28;8948;-74
2021/11/08 11:18:35;;;;;;;;;11.75;11.75;;;;;;;;5059965;28;8862;-74
2021/11/08 11:21:19;;;;;;;;;12.00;12.00;;;;;;;;5043577;28;8849;-74
2021/11/08 11:23:50;;;;;;;;;10.00;9.75;;;;;;;;5063056;28;8859;-74
2021/11/08 11:26:28;;;;;;;;;9.00;9.00;;;;;;;;5045510;28;8862;-74
2021/11/08 11:28:55;;;;;;;;;8.75;8.75;;;;;;;;5063595;28;8857;-74
2021/11/08 11:31:26;;;;;;;;;10.25;6.25;;;;;;;;5062509;28;8860;-75
2021/11/08 11:33:58;;;;;;;;;9.00;6.75;;;;;;;;5059841;28;8834;-74
2021/11/08 11:36:29;;;;;;;;;5.00;5.00;;;;;;;;5060217;28;8881;-74
2021/11/08 11:39:02;;;;;;;;;9.00;5.25;;;;;;;;5063391;28;8858;-74
2021/11/08 11:41:35;;;;;;;;;10.50;6.25;;;;;;;;5063333;28;8845;-74
2021/11/08 11:44:04;;;;;;;;;6.00;6.00;;;;;;;;5065783;28;8864;-76
2021/11/08 11:46:34;;;;;;;;;8.50;8.50;;;;;;;;5055898;28;8863;-75
2021/11/08 11:49:03;;;;;;;;;11.00;9.00;;;;;;;;5058736;28;8854;-73
2021/11/08 11:51:32;;;;;;;;;4.75;3.50;;;;;;;;5063657;28;8870;-77
2021/11/08 11:54:00;;;;;;;;;5.75;4.00;;;;;;;;5045135;28;8861;-77
2021/11/08 11:56:30;;;;;;;;;4.25;3.00;;;;;;;;5061860;28;8885;-76
2021/11/08 11:58:59;;;;;;;;;6.00;4.75;;;;;;;;5062880;28;8858;-76
2021/11/08 12:01:28;;;;;;;;;6.50;5.50;;;;;;;;5059477;28;8840;-77
2021/11/08 12:03:55;;;;;;;;;5.00;5.00;;;;;;;;5055065;28;8868;-76
2021/11/08 12:06:25;;;;;;;;;4.50;4.50;;;;;;;;5057300;28;9623;-76
2021/11/08 12:08:55;;;;;;;;;5.25;2.00;;;;;;;;5063143;28;8826;-75
2021/11/08 12:11:31;;;;;;;;;6.50;5.00;;;;;;;;5061160;28;8886;-76
2021/11/08 12:14:00;;;;;;;;;4.75;4.50;;;;;;;;5061896;28;8989;-74
2021/11/08 12:16:28;;;;;;;;;5.25;5.00;;;;;;;;5058721;28;8981;-76
2021/11/08 12:18:57;;;;;;;;;5.00;5.00;;;;;;;;5059543;28;8867;-77
2021/11/08 12:21:27;;;;;;;;;6.25;5.00;;;;;;;;5041985;28;9764;-76
2021/11/08 12:23:57;;;;;;;;;7.25;5.00;;;;;;;;5057472;28;8850;-76
2021/11/08 12:26:25;;;;;;;;;6.50;5.50;;;;;;;;5058737;28;9603;-76
2021/11/08 12:29:07;;;;;;;;;6.25;3.75;;;;;;;;5040540;28;8976;-75
2021/11/08 12:31:34;;;;;;;;;4.00;4.00;;;;;;;;5059745;28;8837;-73
2021/11/08 12:34:04;;;;;;;;;11.50;6.00;;;;;;;;5060423;28;8976;-75
2021/11/08 12:36:31;;;;;;;;;5.00;5.00;;;;;;;;5052596;28;8838;-77
2021/11/08 12:39:02;;;;;;;;;10.75;9.75;;;;;;;;5040585;28;8877;-75
2021/11/08 12:41:33;;;;;;;;;7.25;5.25;;;;;;;;5058260;28;10489;-74
2021/11/08 12:44:06;;;;;;;;;6.00;6.00;;;;;;;;5065336;28;8870;-75
2021/11/08 12:46:40;;;;;;;;;4.00;4.00;;;;;;;;5065270;28;8849;-75
2021/11/08 12:49:13;;;;;;;;;5.50;5.50;;;;;;;;5064058;28;8850;-75
2021/11/08 12:51:41;;;;;;;;;7.75;7.00;;;;;;;;5063384;28;8850;-75
2021/11/08 12:54:10;;;;;;;;;7.00;7.00;;;;;;;;5062535;28;8920;-75
2021/11/08 12:56:43;;;;;;;;;5.00;2.25;;;;;;;;5062914;28;8853;-75
2021/11/08 12:59:25;;;;;;;;;6.00;5.25;;;;;;;;5062876;28;8834;-75
2021/11/08 13:01:54;;;;;;;;;5.00;5.00;;;;;;;;5067424;28;8965;-75
2021/11/08 13:04:31;;;;;;;;;6.00;2.75;;;;;;;;5065005;28;8893;-75
2021/11/08 13:07:07;;;;;;;;;5.00;5.00;;;;;;;;5058989;28;8965;-74
2021/11/08 13:09:40;;;;;;;;;4.75;4.00;;;;;;;;5057416;28;8826;-76
2021/11/08 13:12:13;;;;;;;;;3.00;3.00;;;;;;;;5065890;28;8850;-77
2021/11/08 13:14:44;;;;;;;;;4.00;4.00;;;;;;;;5067053;28;8861;-75
2021/11/08 13:17:13;;;;;;;;;3.60;2.00;;;;;;;;5058001;28;8888;-74
2021/11/08 13:19:47;;;;;;;;;4.40;4.40;;;;;;;;5061205;28;8845;-73
2021/11/08 13:22:19;;;;;;;;;4.20;3.80;;;;;;;;5064291;28;8885;-75
2021/11/08 13:24:47;;;;;;;;;5.00;5.00;;;;;;;;5042341;28;8879;-74
2021/11/08 13:27:21;;;;;;;;;6.00;4.80;;;;;;;;5060606;28;8856;-75
2021/11/08 13:29:55;;;;;;;;;8.00;3.50;;;;;;;;5047273;28;8858;-75
2021/11/08 13:32:23;;;;;;;;;4.50;4.50;;;;;;;;5059699;28;8842;-75
2021/11/08 13:34:51;;;;;;;;;7.25;6.00;;;;;;;;5066254;28;8858;-77
2021/11/08 13:37:18;;;;;;;;;1.60;1.60;;;;;;;;5061187;28;8978;-78
2021/11/08 13:39:49;;;;;;;;;4.00;4.00;;;;;;;;5061537;28;8964;-73
2021/11/08 13:42:20;;;;;;;;;8.00;6.00;;;;;;;;5045159;28;8866;-76
2021/11/08 13:44:52;;;;;;;;;11.75;11.00;;;;;;;;5068945;28;8879;-76
2021/11/08 13:47:20;;;;;;;;;4.00;4.00;;;;;;;;5063042;28;8900;-74
2021/11/08 13:49:47;;;;;;;;;5.00;5.00;;;;;;;;5065078;28;9662;-75
2021/11/08 13:52:15;;;;;;;;;5.50;5.25;;;;;;;;5066176;28;8984;-75
2021/11/08 13:54:43;;;;;;;;;12.50;9.75;;;;;;;;5065208;28;8887;-73
2021/11/08 13:57:14;;;;;;;;;7.00;5.00;;;;;;;;5048417;28;8826;-76
2021/11/08 13:59:45;;;;;;;;;6.75;5.00;;;;;;;;5065944;28;8869;-75
2021/11/08 14:02:18;;;;;;;;;4.00;4.00;;;;;;;;5062637;28;8809;-74
2021/11/08 14:04:48;;;;;;;;;7.50;7.00;;;;;;;;5063587;28;9946;-71
2021/11/08 14:07:16;;;;;;;;;4.25;3.00;;;;;;;;5064910;28;9634;-75
2021/11/08 14:09:44;;;;;;;;;2.50;2.25;;;;;;;;5063584;28;8876;-74
2021/11/08 14:12:13;;;;;;;;;9.75;8.25;;;;;;;;5039326;28;8836;-75
2021/11/08 14:14:41;;;;;;;;;6.00;6.00;;;;;;;;5063382;28;8903;-75
2021/11/08 14:17:11;;;;;;;;;2.50;2.50;;;;;;;;5060395;28;8861;-73
2021/11/08 14:19:39;;;;;;;;;4.00;2.75;;;;;;;;5042149;28;8862;-74
2021/11/08 14:22:07;;;;;;;;;4.00;1.00;;;;;;;;5060667;28;8857;-73
2021/11/08 14:24:38;;;;;;;;;4.00;3.00;;;;;;;;5066064;28;8841;-74
2021/11/08 14:27:06;;;;;;;;;3.00;3.00;;;;;;;;5065426;28;8866;-74
2021/11/08 14:29:35;;;;;;;;;3.75;3.00;;;;;;;;5061785;28;9694;-72
2021/11/08 14:32:05;;;;;;;;;3.25;3.00;;;;;;;;5059264;28;8834;-76
2021/11/08 14:34:36;;;;;;;;;4.00;4.00;;;;;;;;5060131;28;8838;-74
2021/11/08 14:37:12;;;;;;;;;7.00;4.75;;;;;;;;5055632;28;8842;-76
2021/11/08 14:39:46;;;;;;;;;4.50;4.50;;;;;;;;5056479;28;8873;-77
2021/11/08 14:42:15;;;;;;;;;6.00;3.00;;;;;;;;5063127;28;8857;-75
2021/11/08 14:44:47;;;;;;;;;18.75;16.00;;;;;;;;5046093;28;8869;-76
2021/11/08 14:47:17;;;;;;;;;26.00;20.25;;;;;;;;5064415;28;8861;-76
2021/11/08 14:49:57;;;;;;;;;38.00;27.50;;;;;;;;5065599;28;8838;-75
2021/11/08 14:52:33;;;;;;;;;49.00;39.00;;;;;;;;5064023;28;8858;-76
2021/11/08 14:55:01;;;;;;;;;16.50;15.00;;;;;;;;5058293;28;9654;-75
2021/11/08 14:57:34;;;;;;;;;33.25;32.00;;;;;;;;5035356;28;8854;-76
2021/11/08 15:00:03;;;;;;;;;34.25;28.75;;;;;;;;5064873;28;8911;-76
2021/11/08 15:02:31;;;;;;;;;26.75;26.75;;;;;;;;5063623;28;8782;-75
2021/11/08 15:04:59;;;;;;;;;25.75;23.25;;;;;;;;5063440;28;8994;-74
2021/11/08 15:07:33;;;;;;;;;12.25;10.25;;;;;;;;5066180;28;8908;-75
2021/11/08 15:10:04;;;;;;;;;11.75;11.75;;;;;;;;5064518;28;8862;-75
2021/11/08 15:12:33;;;;;;;;;18.50;16.50;;;;;;;;5065069;28;8865;-75
2021/11/08 15:15:02;;;;;;;;;24.75;22.00;;;;;;;;5044704;28;8865;-75
2021/11/08 15:17:36;;;;;;;;;6.25;5.25;;;;;;;;5059528;28;8886;-76
2021/11/08 15:20:17;;;;;;;;;53.67;37.67;;;;;;;;5063922;28;8871;-74
2021/11/08 15:22:48;;;;;;;;;31.75;28.00;;;;;;;;5052085;28;8930;-71
2021/11/08 15:25:18;;;;;;;;;49.67;38.00;;;;;;;;5064284;28;8858;-75
2021/11/08 15:27:46;;;;;;;;;40.00;34.00;;;;;;;;5064451;28;9105;-74
2021/11/08 15:30:15;;;;;;;;;21.25;18.75;;;;;;;;5041178;28;10724;-74
2021/11/08 15:32:42;;;;;;;;;41.00;31.25;;;;;;;;5054231;28;8822;-73
2021/11/08 15:35:12;;;;;;;;;34.25;31.75;;;;;;;;5046244;28;8912;-74
2021/11/08 15:37:50;;;;;;;;;14.00;10.00;;;;;;;;5058622;28;10690;-74
2021/11/08 15:40:18;;;;;;;;;16.50;13.75;;;;;;;;5059725;28;8905;-73
2021/11/08 15:42:45;;;;;;;;;33.25;26.50;;;;;;;;5062679;28;8988;-74
2021/11/08 15:45:13;;;;;;;;;25.75;20.75;;;;;;;;5066843;28;8881;-72
2021/11/08 15:47:40;;;;;;;;;7.50;7.50;;;;;;;;5061265;28;8845;-75
2021/11/08 15:50:09;;;;;;;;;5.50;5.50;;;;;;;;5064594;28;8857;-74
2021/11/08 15:52:37;;;;;;;;;5.50;4.50;;;;;;;;5062543;28;8969;-76
2021/11/08 15:55:07;;;;;;;;;5.50;4.50;;;;;;;;5045320;28;8861;-79
2021/11/08 15:57:35;;;;;;;;;6.00;4.25;;;;;;;;5062522;28;8876;-79
2021/11/08 16:00:02;;;;;;;;;4.25;3.00;;;;;;;;5062029;28;8854;-80